createdAt,value
2023-07-05T00:00:03.748Z,97940.19
2023-07-05T00:01:05.833Z,97952.13
2023-07-05T00:02:07.187Z,97940.56
2023-07-05T00:03:08.615Z,97940.19
2023-07-05T00:04:10.576Z,97938.25
2023-07-05T00:05:13.154Z,97936.31
2023-07-05T00:06:14.578Z,97927.47
2023-07-05T00:07:15.957Z,97928.66
2023-07-05T00:08:17.382Z,97934.03
2023-07-05T00:09:18.773Z,97930.59
2023-07-05T00:10:20.296Z,97931.31
2023-07-05T00:11:21.641Z,97932.91
2023-07-05T00:12:23.026Z,97935.22
2023-07-05T00:13:24.830Z,97932.47
2023-07-05T00:14:28.417Z,97929.41
2023-07-05T00:15:30.927Z,97924.03
2023-07-05T00:16:32.342Z,97927.06
2023-07-05T00:17:37.268Z,97930.53
2023-07-05T00:18:39.166Z,97928.59
2023-07-05T00:19:40.509Z,97920.91
2023-07-05T00:20:41.833Z,97917.84
2023-07-05T00:21:43.225Z,97919.75
2023-07-05T00:22:45.004Z,97918.19
2023-07-05T00:23:46.920Z,97918.97
2023-07-05T00:24:48.364Z,97913.19
2023-07-05T00:25:49.682Z,97913.94
2023-07-05T00:26:51.046Z,97902.81
2023-07-05T00:27:52.596Z,97904.72
2023-07-05T00:28:53.934Z,97903.19
2023-07-05T00:29:55.408Z,97903.50
2023-07-05T00:30:57.004Z,97905.81
2023-07-05T00:31:58.336Z,97899.72
2023-07-05T00:32:59.785Z,97904.31
2023-07-05T00:34:01.233Z,97903.53
2023-07-05T00:35:03.066Z,97912.75
2023-07-05T00:36:04.832Z,97918.50
2023-07-05T00:37:06.592Z,97918.47
2023-07-05T00:38:07.893Z,97910.03
2023-07-05T00:39:09.259Z,97913.09
2023-07-05T00:40:10.922Z,97913.09
2023-07-05T00:41:12.294Z,97917.34
2023-07-05T00:42:13.716Z,97910.41
2023-07-05T00:43:16.349Z,97918.09
2023-07-05T00:44:17.969Z,97913.47
2023-07-05T00:45:19.396Z,97907.31
2023-07-05T00:46:24.692Z,97910.41
2023-07-05T00:47:31.742Z,97906.97
2023-07-05T00:49:07.095Z,97902.72
2023-07-05T00:50:24.052Z,97900.41
2023-07-05T00:51:31.350Z,97891.94
2023-07-05T00:52:32.724Z,97893.06
2023-07-05T00:53:37.502Z,97888.03
2023-07-05T00:54:55.366Z,97889.63
2023-07-05T00:56:06.213Z,97891.91
2023-07-05T00:57:21.620Z,97888.09
2023-07-05T00:58:24.786Z,97886.53
2023-07-05T00:59:31.728Z,97885.00
2023-07-05T01:00:33.162Z,97881.56
2023-07-05T01:01:34.706Z,97876.56
2023-07-05T01:02:39.694Z,97868.47
2023-07-05T01:03:43.594Z,97875.38
2023-07-05T01:04:45.041Z,97884.25
2023-07-05T01:05:46.811Z,97876.56
2023-07-05T01:06:48.231Z,97877.72
2023-07-05T01:07:50.326Z,97879.28
2023-07-05T01:08:52.626Z,97879.28
2023-07-05T01:09:54.018Z,97875.81
2023-07-05T01:11:10.407Z,97881.66
2023-07-05T01:12:19.934Z,97880.88
2023-07-05T01:13:30.122Z,97880.84
2023-07-05T01:14:39.720Z,97882.03
2023-07-05T01:15:49.872Z,97885.13
2023-07-05T01:17:15.826Z,97883.56
2023-07-05T01:18:46.269Z,97881.66
2023-07-05T01:19:58.336Z,97877.44
2023-07-05T01:21:05.314Z,97878.97
2023-07-05T01:22:11.174Z,97878.19
2023-07-05T01:23:24.952Z,97875.88
2023-07-05T01:24:49.112Z,97882.81
2023-07-05T01:26:06.639Z,97874.75
2023-07-05T01:27:16.587Z,97876.66
2023-07-05T01:28:39.916Z,97881.66
2023-07-05T01:29:48.684Z,97889.34
2023-07-05T01:31:23.685Z,97883.97
2023-07-05T01:33:00.232Z,97878.16
2023-07-05T01:34:15.081Z,97878.53
2023-07-05T01:35:21.550Z,97888.94
2023-07-05T01:36:23.608Z,97881.63
2023-07-05T01:37:34.063Z,97894.72
2023-07-05T01:38:35.463Z,97892.03
2023-07-05T01:39:37.280Z,97888.94
2023-07-05T01:40:38.556Z,97893.13
2023-07-05T01:41:40.192Z,97887.78
2023-07-05T01:42:44.204Z,97891.97
2023-07-05T01:43:45.851Z,97880.09
2023-07-05T01:44:49.300Z,97877.03
2023-07-05T01:46:02.889Z,97878.53
2023-07-05T01:47:19.416Z,97873.56
2023-07-05T01:48:36.000Z,97866.25
2023-07-05T01:50:02.958Z,97856.22
2023-07-05T01:51:27.052Z,97853.91
2023-07-05T01:52:47.490Z,97857.34
2023-07-05T01:54:04.014Z,97865.03
2023-07-05T01:55:13.733Z,97870.44
2023-07-05T01:56:26.278Z,97880.03
2023-07-05T01:57:38.411Z,97895.78
2023-07-05T01:58:45.892Z,97911.56
2023-07-05T01:59:53.640Z,97932.34
2023-07-05T02:00:56.598Z,97941.16
2023-07-05T02:01:59.727Z,97949.25
2023-07-05T02:03:04.532Z,97951.94
2023-07-05T02:04:08.023Z,97949.66
2023-07-05T02:05:11.024Z,97949.25
2023-07-05T02:06:13.426Z,97951.91
2023-07-05T02:07:14.930Z,97948.44
2023-07-05T02:08:17.317Z,97956.53
2023-07-05T02:09:18.744Z,97953.44
2023-07-05T02:10:20.635Z,97946.50
2023-07-05T02:11:23.253Z,97948.00
2023-07-05T02:12:25.725Z,97943.38
2023-07-05T02:13:27.572Z,97946.84
2023-07-05T02:14:28.996Z,97952.22
2023-07-05T02:15:30.412Z,97950.69
2023-07-05T02:16:31.818Z,97950.31
2023-07-05T02:17:33.256Z,97948.03
2023-07-05T02:18:34.669Z,97956.09
2023-07-05T02:19:36.447Z,97962.63
2023-07-05T02:20:38.820Z,97964.19
2023-07-05T02:21:40.160Z,97964.56
2023-07-05T02:22:41.555Z,97977.25
2023-07-05T02:23:42.947Z,97975.75
2023-07-05T02:24:44.284Z,97965.75
2023-07-05T02:25:45.751Z,97946.50
2023-07-05T02:26:47.317Z,97949.56
2023-07-05T02:27:48.875Z,97939.97
2023-07-05T02:28:50.262Z,97956.50
2023-07-05T02:29:51.645Z,97968.75
2023-07-05T02:30:53.041Z,97964.06
2023-07-05T02:31:56.456Z,97964.81
2023-07-05T02:32:57.799Z,97974.75
2023-07-05T02:33:59.226Z,97977.75
2023-07-05T02:35:00.848Z,97979.69
2023-07-05T02:36:10.551Z,97976.22
2023-07-05T02:37:12.784Z,97975.41
2023-07-05T02:38:14.200Z,97975.41
2023-07-05T02:39:15.533Z,97978.81
2023-07-05T02:40:17.011Z,97973.34
2023-07-05T02:41:18.416Z,97969.22
2023-07-05T02:42:19.823Z,97970.78
2023-07-05T02:43:21.133Z,97971.16
2023-07-05T02:44:22.578Z,97969.94
2023-07-05T02:45:23.969Z,97968.41
2023-07-05T02:46:25.430Z,97970.28
2023-07-05T02:47:26.880Z,97963.38
2023-07-05T02:48:28.312Z,97959.94
2023-07-05T02:49:29.753Z,97958.41
2023-07-05T02:50:31.132Z,97962.59
2023-07-05T02:51:32.603Z,97959.50
2023-07-05T02:52:33.940Z,97955.25
2023-07-05T02:53:35.334Z,97955.94
2023-07-05T02:54:36.760Z,97950.63
2023-07-05T02:55:38.166Z,97951.38
2023-07-05T02:56:39.812Z,97954.81
2023-07-05T02:57:41.222Z,97950.19
2023-07-05T02:58:42.558Z,97952.47
2023-07-05T02:59:43.933Z,97950.19
2023-07-05T03:00:45.451Z,97947.88
2023-07-05T03:01:46.870Z,97942.50
2023-07-05T03:02:48.583Z,97939.84
2023-07-05T03:03:50.058Z,97944.06
2023-07-05T03:04:51.462Z,97944.44
2023-07-05T03:05:57.314Z,97936.38
2023-07-05T03:06:58.899Z,97939.03
2023-07-05T03:08:00.299Z,97929.09
2023-07-05T03:09:01.834Z,97930.25
2023-07-05T03:10:03.674Z,97939.81
2023-07-05T03:11:05.085Z,97937.91
2023-07-05T03:12:06.990Z,97939.81
2023-07-05T03:13:08.408Z,97935.97
2023-07-05T03:14:09.774Z,97934.44
2023-07-05T03:15:11.279Z,97937.88
2023-07-05T03:16:12.607Z,97936.31
2023-07-05T03:17:13.955Z,97934.41
2023-07-05T03:18:15.316Z,97933.63
2023-07-05T03:19:16.835Z,97930.53
2023-07-05T03:20:18.165Z,97928.59
2023-07-05T03:21:19.569Z,97929.78
2023-07-05T03:22:21.166Z,97937.47
2023-07-05T03:23:23.075Z,97930.09
2023-07-05T03:24:26.169Z,97943.53
2023-07-05T03:25:27.591Z,97938.16
2023-07-05T03:26:28.984Z,97935.81
2023-07-05T03:27:30.322Z,97937.34
2023-07-05T03:28:33.238Z,97942.69
2023-07-05T03:29:34.561Z,97935.00
2023-07-05T03:30:36.980Z,97937.25
2023-07-05T03:31:39.143Z,97936.84
2023-07-05T03:32:40.650Z,97941.03
2023-07-05T03:33:42.579Z,97942.53
2023-07-05T03:34:43.925Z,97937.19
2023-07-05T03:35:56.317Z,97937.13
2023-07-05T03:36:58.072Z,97935.94
2023-07-05T03:37:59.430Z,97937.84
2023-07-05T03:39:01.309Z,97931.34
2023-07-05T03:40:02.671Z,97933.63
2023-07-05T03:41:12.089Z,97931.72
2023-07-05T03:42:13.475Z,97938.22
2023-07-05T03:43:14.876Z,97943.19
2023-07-05T03:44:16.353Z,97945.13
2023-07-05T03:45:17.702Z,97945.13
2023-07-05T03:46:19.127Z,97950.56
2023-07-05T03:47:20.624Z,97952.84
2023-07-05T03:48:22.532Z,97952.44
2023-07-05T03:49:23.944Z,97951.31
2023-07-05T03:50:25.309Z,97953.97
2023-07-05T03:51:27.009Z,97957.78
2023-07-05T03:52:28.395Z,97953.59
2023-07-05T03:53:30.058Z,97958.22
2023-07-05T03:54:31.382Z,97960.19
2023-07-05T03:55:36.509Z,97954.44
2023-07-05T03:56:38.799Z,97956.38
2023-07-05T03:57:40.156Z,97953.72
2023-07-05T03:58:41.492Z,97954.09
2023-07-05T03:59:42.956Z,97955.59
2023-07-05T04:00:44.791Z,97952.16
2023-07-05T04:01:46.220Z,97955.97
2023-07-05T04:02:47.694Z,97958.28
2023-07-05T04:03:51.598Z,97949.47
2023-07-05T04:04:52.990Z,97951.41
2023-07-05T04:05:54.291Z,97957.19
2023-07-05T04:06:55.665Z,97948.00
2023-07-05T04:07:57.080Z,97957.69
2023-07-05T04:08:59.167Z,97953.09
2023-07-05T04:10:00.549Z,97958.84
2023-07-05T04:11:01.933Z,97958.78
2023-07-05T04:12:03.394Z,97961.47
2023-07-05T04:13:04.789Z,97957.31
2023-07-05T04:14:06.250Z,97955.00
2023-07-05T04:15:08.297Z,97955.44
2023-07-05T04:16:15.541Z,97961.56
2023-07-05T04:17:16.939Z,97962.00
2023-07-05T04:18:18.255Z,97965.44
2023-07-05T04:19:19.688Z,97963.56
2023-07-05T04:20:21.037Z,97953.59
2023-07-05T04:21:23.774Z,97956.22
2023-07-05T04:22:25.138Z,97959.69
2023-07-05T04:23:27.375Z,97957.41
2023-07-05T04:24:28.742Z,97951.66
2023-07-05T04:25:30.159Z,97955.50
2023-07-05T04:26:31.913Z,97957.09
2023-07-05T04:27:33.354Z,97949.44
2023-07-05T04:28:36.332Z,97949.06
2023-07-05T04:29:37.662Z,97953.28
2023-07-05T04:30:41.963Z,97952.56
2023-07-05T04:31:43.496Z,97947.63
2023-07-05T04:32:45.190Z,97947.56
2023-07-05T04:33:46.644Z,97949.53
2023-07-05T04:34:47.996Z,97943.72
2023-07-05T04:35:51.289Z,97947.19
2023-07-05T04:36:52.602Z,97944.56
2023-07-05T04:37:53.962Z,97949.91
2023-07-05T04:38:56.657Z,97951.78
2023-07-05T04:39:59.196Z,97946.00
2023-07-05T04:41:01.491Z,97944.44
2023-07-05T04:42:02.913Z,97946.75
2023-07-05T04:43:04.291Z,97939.06
2023-07-05T04:44:06.901Z,97946.00
2023-07-05T04:45:08.846Z,97942.53
2023-07-05T04:46:10.272Z,97941.38
2023-07-05T04:47:11.696Z,97933.41
2023-07-05T04:48:13.042Z,97939.19
2023-07-05T04:49:14.400Z,97941.13
2023-07-05T04:50:15.768Z,97941.94
2023-07-05T04:51:17.505Z,97938.06
2023-07-05T04:52:18.835Z,97933.44
2023-07-05T04:53:20.769Z,97939.25
2023-07-05T04:54:22.159Z,97933.88
2023-07-05T04:55:24.024Z,97934.66
2023-07-05T04:56:25.395Z,97935.56
2023-07-05T04:57:32.489Z,97937.16
2023-07-05T04:58:34.471Z,97938.34
2023-07-05T04:59:35.846Z,97931.84
2023-07-05T05:00:37.447Z,97929.22
2023-07-05T05:01:39.302Z,97928.91
2023-07-05T05:02:40.968Z,97931.25
2023-07-05T05:03:42.668Z,97931.28
2023-07-05T05:04:44.040Z,97926.28
2023-07-05T05:05:47.205Z,97928.19
2023-07-05T05:06:49.074Z,97922.03
2023-07-05T05:07:50.470Z,97912.44
2023-07-05T05:08:51.810Z,97920.91
2023-07-05T05:09:53.172Z,97915.16
2023-07-05T05:10:57.604Z,97904.78
2023-07-05T05:11:58.934Z,97901.91
2023-07-05T05:13:00.257Z,97899.75
2023-07-05T05:14:01.762Z,97896.22
2023-07-05T05:15:03.347Z,97893.81
2023-07-05T05:16:05.988Z,97896.72
2023-07-05T05:17:07.941Z,97894.22
2023-07-05T05:18:10.404Z,97890.91
2023-07-05T05:19:11.937Z,97898.03
2023-07-05T05:20:13.321Z,97906.00
2023-07-05T05:21:14.786Z,97911.56
2023-07-05T05:22:16.145Z,97913.03
2023-07-05T05:23:17.780Z,97910.66
2023-07-05T05:24:19.177Z,97915.03
2023-07-05T05:25:20.576Z,97911.50
2023-07-05T05:26:21.890Z,97920.16
2023-07-05T05:27:23.228Z,97917.06
2023-07-05T05:28:24.642Z,97905.13
2023-07-05T05:29:25.978Z,97918.22
2023-07-05T05:30:27.599Z,97916.00
2023-07-05T05:31:28.998Z,97923.34
2023-07-05T05:32:30.381Z,97921.50
2023-07-05T05:33:31.881Z,97927.97
2023-07-05T05:34:33.344Z,97922.34
2023-07-05T05:35:34.690Z,97919.50
2023-07-05T05:36:35.996Z,97918.84
2023-07-05T05:37:37.490Z,97915.78
2023-07-05T05:38:38.898Z,97912.88
2023-07-05T05:39:40.639Z,97916.06
2023-07-05T05:40:42.880Z,97923.13
2023-07-05T05:41:44.188Z,97919.44
2023-07-05T05:42:45.963Z,97918.59
2023-07-05T05:43:47.378Z,97926.06
2023-07-05T05:44:49.100Z,97931.94
2023-07-05T05:45:50.428Z,97930.47
2023-07-05T05:46:51.921Z,97926.66
2023-07-05T05:47:53.409Z,97933.72
2023-07-05T05:48:54.804Z,97932.22
2023-07-05T05:49:56.186Z,97931.88
2023-07-05T05:50:57.763Z,97926.09
2023-07-05T05:51:59.140Z,97933.09
2023-07-05T05:53:00.555Z,97939.63
2023-07-05T05:54:02.535Z,97928.06
2023-07-05T05:55:04.751Z,97924.94
2023-07-05T05:56:06.138Z,97932.28
2023-07-05T05:57:07.531Z,97934.63
2023-07-05T05:58:09.566Z,97945.06
2023-07-05T05:59:10.943Z,97942.03
2023-07-05T06:00:13.161Z,97943.56
2023-07-05T06:01:14.713Z,97945.09
2023-07-05T06:02:16.271Z,97948.19
2023-07-05T06:03:17.910Z,97950.91
2023-07-05T06:04:19.368Z,97953.59
2023-07-05T06:05:20.755Z,97950.91
2023-07-05T06:06:22.090Z,97954.38
2023-07-05T06:07:23.495Z,97956.31
2023-07-05T06:08:25.352Z,97965.22
2023-07-05T06:09:26.725Z,97975.63
2023-07-05T06:10:28.192Z,97979.50
2023-07-05T06:11:29.555Z,97988.34
2023-07-05T06:12:31.207Z,97995.31
2023-07-05T06:13:33.519Z,98009.59
2023-07-05T06:14:34.908Z,98015.38
2023-07-05T06:15:36.222Z,98015.38
2023-07-05T06:16:37.539Z,98026.13
2023-07-05T06:17:39.436Z,98022.63
2023-07-05T06:18:40.805Z,98026.44
2023-07-05T06:19:42.223Z,98016.78
2023-07-05T06:20:44.806Z,98024.47
2023-07-05T06:21:46.104Z,98021.38
2023-07-05T06:22:47.502Z,98022.53
2023-07-05T06:23:49.053Z,98025.59
2023-07-05T06:24:50.400Z,98014.44
2023-07-05T06:25:53.443Z,98021.75
2023-07-05T06:26:55.711Z,98027.50
2023-07-05T06:27:57.207Z,98025.56
2023-07-05T06:28:58.557Z,98034.00
2023-07-05T06:29:59.968Z,98037.09
2023-07-05T06:31:05.959Z,98033.59
2023-07-05T06:32:07.468Z,98038.91
2023-07-05T06:33:09.061Z,98054.16
2023-07-05T06:34:10.791Z,98063.69
2023-07-05T06:35:12.181Z,98062.34
2023-07-05T06:36:13.679Z,98063.44
2023-07-05T06:37:16.294Z,98056.34
2023-07-05T06:38:18.059Z,98053.03
2023-07-05T06:39:21.061Z,98060.19
2023-07-05T06:40:23.248Z,98052.00
2023-07-05T06:41:24.646Z,98060.72
2023-07-05T06:42:28.218Z,98060.34
2023-07-05T06:43:35.805Z,98059.53
2023-07-05T06:44:37.177Z,98064.13
2023-07-05T06:45:38.495Z,98061.00
2023-07-05T06:46:39.884Z,98058.97
2023-07-05T06:47:42.002Z,98063.53
2023-07-05T06:48:43.339Z,98061.16
2023-07-05T06:49:44.734Z,98070.38
2023-07-05T06:50:57.027Z,98068.81
2023-07-05T06:51:58.639Z,98067.31
2023-07-05T06:53:22.554Z,98067.72
2023-07-05T06:54:22.140Z,98068.09
2023-07-05T06:55:23.560Z,98069.66
2023-07-05T06:56:24.922Z,98066.53
2023-07-05T06:57:26.261Z,98069.22
2023-07-05T06:58:27.600Z,98066.59
2023-07-05T06:59:28.959Z,98071.19
2023-07-05T07:00:30.260Z,98081.09
2023-07-05T07:01:31.619Z,98082.69
2023-07-05T07:02:33.006Z,98076.94
2023-07-05T07:03:34.323Z,98079.56
2023-07-05T07:04:35.758Z,98082.66
2023-07-05T07:05:37.132Z,98081.47
2023-07-05T07:06:38.464Z,98082.97
2023-07-05T07:07:39.828Z,98086.78
2023-07-05T07:08:41.223Z,98084.50
2023-07-05T07:09:42.642Z,98086.91
2023-07-05T07:10:44.173Z,98093.69
2023-07-05T07:11:45.488Z,98086.34
2023-07-05T07:12:46.812Z,98083.34
2023-07-05T07:13:48.336Z,98085.31
2023-07-05T07:14:49.732Z,98081.97
2023-07-05T07:16:09.150Z,98092.72
2023-07-05T07:17:10.579Z,98098.84
2023-07-05T07:18:12.098Z,98098.50
2023-07-05T07:19:13.498Z,98103.53
2023-07-05T07:20:15.847Z,98099.75
2023-07-05T07:21:19.507Z,98109.78
2023-07-05T07:22:20.950Z,98118.22
2023-07-05T07:23:23.510Z,98111.31
2023-07-05T07:24:24.898Z,98118.72
2023-07-05T07:25:27.426Z,98111.41
2023-07-05T07:26:28.780Z,98122.97
2023-07-05T07:27:30.111Z,98120.72
2023-07-05T07:28:31.480Z,98119.94
2023-07-05T07:29:32.844Z,98115.72
2023-07-05T07:30:34.213Z,98122.81
2023-07-05T07:31:35.630Z,98112.25
2023-07-05T07:32:37.051Z,98115.00
2023-07-05T07:33:38.562Z,98120.13
2023-07-05T07:34:39.933Z,98117.47
2023-07-05T07:35:42.488Z,98124.84
2023-07-05T07:36:44.984Z,98126.41
2023-07-05T07:37:46.474Z,98114.50
2023-07-05T07:38:51.609Z,98121.53
2023-07-05T07:39:52.969Z,98122.00
2023-07-05T07:40:54.447Z,98122.88
2023-07-05T07:41:56.595Z,98124.84
2023-07-05T07:42:57.971Z,98119.22
2023-07-05T07:44:01.451Z,98119.44
2023-07-05T07:45:02.862Z,98118.44
2023-07-05T07:46:11.554Z,98115.16
2023-07-05T07:47:12.954Z,98124.44
2023-07-05T07:48:14.332Z,98124.03
2023-07-05T07:49:15.747Z,98123.63
2023-07-05T07:50:17.237Z,98133.28
2023-07-05T07:51:36.675Z,98130.25
2023-07-05T07:52:40.238Z,98134.88
2023-07-05T07:53:41.563Z,98146.81
2023-07-05T07:54:43.816Z,98143.72
2023-07-05T07:55:45.132Z,98140.19
2023-07-05T07:56:48.313Z,98144.34
2023-07-05T07:57:49.696Z,98153.19
2023-07-05T07:58:53.183Z,98146.91
2023-07-05T07:59:54.584Z,98154.94
2023-07-05T08:00:56.224Z,98144.50
2023-07-05T08:01:58.036Z,98152.44
2023-07-05T08:02:59.471Z,98149.47
2023-07-05T08:04:03.348Z,98157.25
2023-07-05T08:05:14.177Z,98155.91
2023-07-05T08:06:16.442Z,98156.03
2023-07-05T08:07:17.820Z,98169.56
2023-07-05T08:08:19.380Z,98166.91
2023-07-05T08:09:26.759Z,98161.09
2023-07-05T08:10:29.070Z,98171.91
2023-07-05T08:11:30.949Z,98161.06
2023-07-05T08:12:32.396Z,98163.00
2023-07-05T08:13:33.917Z,98163.72
2023-07-05T08:14:35.337Z,98172.19
2023-07-05T08:15:36.831Z,98169.38
2023-07-05T08:16:38.582Z,98160.75
2023-07-05T08:17:40.045Z,98173.56
2023-07-05T08:18:45.969Z,98166.56
2023-07-05T08:20:14.285Z,98160.81
2023-07-05T08:21:18.588Z,98173.31
2023-07-05T08:22:19.949Z,98174.22
2023-07-05T08:23:21.751Z,98160.72
2023-07-05T08:24:27.203Z,98171.91
2023-07-05T08:25:29.322Z,98165.00
2023-07-05T08:26:30.669Z,98168.50
2023-07-05T08:27:32.048Z,98176.25
2023-07-05T08:28:33.501Z,98179.31
2023-07-05T08:29:34.892Z,98164.66
2023-07-05T08:30:36.290Z,98174.28
2023-07-05T08:31:37.788Z,98173.09
2023-07-05T08:32:39.277Z,98178.69
2023-07-05T08:33:41.689Z,98179.03
2023-07-05T08:34:43.122Z,98188.22
2023-07-05T08:35:44.509Z,98190.16
2023-07-05T08:36:45.981Z,98186.94
2023-07-05T08:37:47.385Z,98188.47
2023-07-05T08:38:50.938Z,98190.34
2023-07-05T08:39:52.418Z,98189.66
2023-07-05T08:40:59.050Z,98197.09
2023-07-05T08:42:35.917Z,98197.91
2023-07-05T08:43:44.070Z,98195.94
2023-07-05T08:45:11.949Z,98198.97
2023-07-05T08:46:16.004Z,98193.44
2023-07-05T08:47:24.546Z,98189.50
2023-07-05T08:48:26.014Z,98199.91
2023-07-05T08:49:33.960Z,98201.13
2023-07-05T08:50:43.647Z,98197.69
2023-07-05T08:51:50.250Z,98202.03
2023-07-05T08:52:58.398Z,98205.63
2023-07-05T08:54:03.105Z,98204.56
2023-07-05T08:55:08.413Z,98201.16
2023-07-05T08:56:18.694Z,98208.59
2023-07-05T08:57:41.174Z,98210.97
2023-07-05T08:58:48.358Z,98203.38
2023-07-05T08:59:55.291Z,98211.88
2023-07-05T09:01:06.286Z,98210.41
2023-07-05T09:02:10.105Z,98211.59
2023-07-05T09:03:13.494Z,98209.69
2023-07-05T09:04:23.680Z,98217.03
2023-07-05T09:05:49.690Z,98210.88
2023-07-05T09:06:58.680Z,98217.81
2023-07-05T09:08:25.404Z,98223.97
2023-07-05T09:09:47.928Z,98225.53
2023-07-05T09:10:56.108Z,98225.53
2023-07-05T09:12:06.508Z,98220.13
2023-07-05T09:13:15.696Z,98219.75
2023-07-05T09:14:26.121Z,98221.69
2023-07-05T09:15:35.509Z,98226.69
2023-07-05T09:16:44.741Z,98233.25
2023-07-05T09:17:46.199Z,98227.88
2023-07-05T09:18:56.690Z,98229.78
2023-07-05T09:20:26.933Z,98226.69
2023-07-05T09:21:37.676Z,98226.28
2023-07-05T09:22:40.355Z,98232.47
2023-07-05T09:23:52.444Z,98231.31
2023-07-05T09:24:55.221Z,98228.25
2023-07-05T09:26:14.118Z,98225.91
2023-07-05T09:27:15.352Z,98229.41
2023-07-05T09:28:25.876Z,98227.06
2023-07-05T09:30:00.957Z,98233.66
2023-07-05T09:31:02.385Z,98229.00
2023-07-05T09:32:14.624Z,98225.91
2023-07-05T09:33:31.397Z,98228.63
2023-07-05T09:34:43.898Z,98230.53
2023-07-05T09:35:48.061Z,98232.47
2023-07-05T09:36:49.499Z,98229.78
2023-07-05T09:38:23.211Z,98235.97
2023-07-05T09:39:34.641Z,98240.19
2023-07-05T09:40:41.344Z,98228.59
2023-07-05T09:41:47.748Z,98234.41
2023-07-05T09:42:57.312Z,98225.91
2023-07-05T09:43:58.744Z,98232.88
2023-07-05T09:45:00.264Z,98232.09
2023-07-05T09:46:07.899Z,98230.13
2023-07-05T09:47:10.049Z,98222.41
2023-07-05T09:48:12.896Z,98223.94
2023-07-05T09:49:16.842Z,98223.94
2023-07-05T09:50:21.309Z,98220.88
2023-07-05T09:51:23.068Z,98225.13
2023-07-05T09:52:26.389Z,98229.78
2023-07-05T09:53:46.194Z,98230.53
2023-07-05T09:54:50.055Z,98230.50
2023-07-05T09:56:06.499Z,98238.59
2023-07-05T09:57:09.479Z,98229.31
2023-07-05T09:58:16.567Z,98236.25
2023-07-05T09:59:22.096Z,98220.81
2023-07-05T10:00:27.901Z,98225.81
2023-07-05T10:01:31.319Z,98225.41
2023-07-05T10:02:35.567Z,98227.69
2023-07-05T10:03:39.120Z,98225.00
2023-07-05T10:04:49.634Z,98226.53
2023-07-05T10:05:55.892Z,98225.75
2023-07-05T10:06:57.590Z,98231.94
2023-07-05T10:08:01.801Z,98225.78
2023-07-05T10:09:14.259Z,98229.22
2023-07-05T10:10:15.660Z,98229.28
2023-07-05T10:11:26.393Z,98225.47
2023-07-05T10:12:39.600Z,98232.44
2023-07-05T10:13:41.346Z,98237.41
2023-07-05T10:14:42.727Z,98232.78
2023-07-05T10:15:50.660Z,98229.63
2023-07-05T10:16:57.544Z,98237.31
2023-07-05T10:17:59.167Z,98236.88
2023-07-05T10:19:00.589Z,98245.81
2023-07-05T10:20:01.998Z,98242.28
2023-07-05T10:21:05.852Z,98241.88
2023-07-05T10:22:15.102Z,98236.34
2023-07-05T10:23:21.301Z,98231.72
2023-07-05T10:24:22.735Z,98234.81
2023-07-05T10:25:24.187Z,98232.47
2023-07-05T10:26:25.650Z,98232.81
2023-07-05T10:27:36.025Z,98232.03
2023-07-05T10:28:37.473Z,98241.22
2023-07-05T10:29:41.117Z,98236.13
2023-07-05T10:30:54.185Z,98232.59
2023-07-05T10:31:57.275Z,98236.78
2023-07-05T10:33:09.233Z,98243.56
2023-07-05T10:34:21.020Z,98254.38
2023-07-05T10:35:28.404Z,98248.47
2023-07-05T10:36:30.000Z,98248.97
2023-07-05T10:37:39.297Z,98244.88
2023-07-05T10:38:40.659Z,98245.91
2023-07-05T10:39:42.117Z,98255.91
2023-07-05T10:40:43.587Z,98257.25
2023-07-05T10:41:45.023Z,98262.75
2023-07-05T10:42:50.918Z,98257.03
2023-07-05T10:44:16.836Z,98266.63
2023-07-05T10:45:21.854Z,98261.53
2023-07-05T10:46:26.565Z,98254.41
2023-07-05T10:47:29.035Z,98265.75
2023-07-05T10:48:40.876Z,98260.78
2023-07-05T10:49:42.925Z,98265.22
2023-07-05T10:50:46.945Z,98257.00
2023-07-05T10:51:52.857Z,98259.81
2023-07-05T10:53:10.979Z,98259.69
2023-07-05T10:54:33.950Z,98261.81
2023-07-05T10:56:03.657Z,98253.38
2023-07-05T10:57:15.873Z,98255.31
2023-07-05T10:58:21.398Z,98262.31
2023-07-05T10:59:41.403Z,98261.31
2023-07-05T11:00:48.660Z,98258.06
2023-07-05T11:01:56.752Z,98267.53
2023-07-05T11:03:09.956Z,98263.53
2023-07-05T11:04:14.059Z,98263.53
2023-07-05T11:05:45.173Z,98265.03
2023-07-05T11:06:49.085Z,98261.00
2023-07-05T11:07:53.483Z,98261.75
2023-07-05T11:08:55.075Z,98266.69
2023-07-05T11:09:57.725Z,98278.06
2023-07-05T11:11:02.773Z,98262.03
2023-07-05T11:12:11.912Z,98275.72
2023-07-05T11:13:17.604Z,98263.09
2023-07-05T11:14:19.490Z,98262.66
2023-07-05T11:15:21.180Z,98261.13
2023-07-05T11:16:28.408Z,98262.94
2023-07-05T11:17:36.298Z,98259.91
2023-07-05T11:18:37.980Z,98264.03
2023-07-05T11:19:40.379Z,98266.16
2023-07-05T11:20:41.760Z,98266.16
2023-07-05T11:21:45.964Z,98266.81
2023-07-05T11:22:47.612Z,98269.56
2023-07-05T11:23:49.097Z,98266.22
2023-07-05T11:24:50.788Z,98259.50
2023-07-05T11:25:54.890Z,98267.09
2023-07-05T11:26:56.296Z,98259.41
2023-07-05T11:27:57.757Z,98265.81
2023-07-05T11:28:59.662Z,98258.09
2023-07-05T11:30:01.124Z,98261.31
2023-07-05T11:31:03.969Z,98255.88
2023-07-05T11:32:06.502Z,98261.28
2023-07-05T11:33:08.100Z,98261.66
2023-07-05T11:34:24.761Z,98259.13
2023-07-05T11:35:46.089Z,98259.00
2023-07-05T11:36:53.235Z,98252.22
2023-07-05T11:37:54.574Z,98253.47
2023-07-05T11:38:57.736Z,98260.78
2023-07-05T11:39:59.139Z,98251.78
2023-07-05T11:41:00.895Z,98246.84
2023-07-05T11:42:14.489Z,98251.81
2023-07-05T11:43:39.771Z,98254.38
2023-07-05T11:44:56.351Z,98256.50
2023-07-05T11:45:57.841Z,98260.03
2023-07-05T11:46:59.670Z,98260.88
2023-07-05T11:48:01.066Z,98270.00
2023-07-05T11:49:39.768Z,98265.56
2023-07-05T11:50:43.753Z,98273.66
2023-07-05T11:51:45.969Z,98265.75
2023-07-05T11:52:57.421Z,98276.00
2023-07-05T11:54:01.896Z,98266.03
2023-07-05T11:55:15.451Z,98279.03
2023-07-05T11:56:18.261Z,98277.81
2023-07-05T11:57:20.533Z,98281.59
2023-07-05T11:58:30.407Z,98276.72
2023-07-05T11:59:35.314Z,98278.69
2023-07-05T12:00:49.172Z,98276.00
2023-07-05T12:01:53.782Z,98274.13
2023-07-05T12:03:13.708Z,98278.16
2023-07-05T12:04:21.104Z,98282.72
2023-07-05T12:05:26.902Z,98288.84
2023-07-05T12:06:47.751Z,98301.38
2023-07-05T12:07:58.032Z,98281.22
2023-07-05T12:09:05.018Z,98287.84
2023-07-05T12:10:10.756Z,98286.59
2023-07-05T12:11:26.623Z,98292.03
2023-07-05T12:12:28.073Z,98280.38
2023-07-05T12:13:34.395Z,98280.91
2023-07-05T12:14:37.648Z,98277.50
2023-07-05T12:15:39.805Z,98275.09
2023-07-05T12:16:43.937Z,98281.47
2023-07-05T12:17:46.912Z,98282.22
2023-07-05T12:18:48.572Z,98267.75
2023-07-05T12:19:49.958Z,98273.13
2023-07-05T12:20:53.599Z,98274.28
2023-07-05T12:21:58.869Z,98269.50
2023-07-05T12:23:00.967Z,98278.00
2023-07-05T12:24:06.320Z,98278.09
2023-07-05T12:25:11.181Z,98282.63
2023-07-05T12:26:23.531Z,98272.03
2023-07-05T12:27:26.737Z,98278.03
2023-07-05T12:28:30.281Z,98284.22
2023-07-05T12:29:31.629Z,98273.81
2023-07-05T12:30:39.561Z,98280.53
2023-07-05T12:31:41.000Z,98276.31
2023-07-05T12:32:48.904Z,98272.72
2023-07-05T12:33:56.174Z,98270.22
2023-07-05T12:35:15.537Z,98274.63
2023-07-05T12:36:19.175Z,98269.94
2023-07-05T12:37:30.499Z,98274.13
2023-07-05T12:38:32.652Z,98275.59